sensor_id;sensor_type;location;lat;lon;timestamp;P1;durP1;ratioP1;P2;durP2;ratioP2
49946;SDS011;35839;48.662;13.300;2024-02-23T00:00:01;19.40;;;16.00;;
49946;SDS011;35839;48.662;13.300;2024-02-23T00:02:31;132.43;;;63.43;;
49946;SDS011;35839;48.662;13.300;2024-02-23T00:04:57;156.13;;;65.77;;
49946;SDS011;35839;48.662;13.300;2024-02-23T00:07:22;59.60;;;30.00;;
49946;SDS011;35839;48.662;13.300;2024-02-23T00:09:47;29.13;;;20.30;;
49946;SDS011;35839;48.662;13.300;2024-02-23T00:12:13;21.33;;;16.23;;
49946;SDS011;35839;48.662;13.300;2024-02-23T00:14:39;22.53;;;16.60;;
49946;SDS011;35839;48.662;13.300;2024-02-23T00:17:04;22.77;;;17.17;;
49946;SDS011;35839;48.662;13.300;2024-02-23T00:19:30;27.33;;;21.33;;
49946;SDS011;35839;48.662;13.300;2024-02-23T00:21:59;29.73;;;22.65;;
49946;SDS011;35839;48.662;13.300;2024-02-23T00:24:25;31.20;;;23.53;;
49946;SDS011;35839;48.662;13.300;2024-02-23T00:26:52;23.90;;;20.47;;
49946;SDS011;35839;48.662;13.300;2024-02-23T00:29:17;28.10;;;20.57;;
49946;SDS011;35839;48.662;13.300;2024-02-23T00:31:43;28.43;;;21.90;;
49946;SDS011;35839;48.662;13.300;2024-02-23T00:34:11;30.02;;;23.88;;
49946;SDS011;35839;48.662;13.300;2024-02-23T00:36:41;28.60;;;22.10;;
49946;SDS011;35839;48.662;13.300;2024-02-23T00:39:07;25.20;;;19.92;;
49946;SDS011;35839;48.662;13.300;2024-02-23T00:41:33;26.77;;;20.07;;
49946;SDS011;35839;48.662;13.300;2024-02-23T00:43:59;25.63;;;19.90;;
49946;SDS011;35839;48.662;13.300;2024-02-23T00:46:24;25.53;;;18.90;;
49946;SDS011;35839;48.662;13.300;2024-02-23T00:48:50;23.80;;;18.77;;
49946;SDS011;35839;48.662;13.300;2024-02-23T00:51:15;70.97;;;48.50;;
49946;SDS011;35839;48.662;13.300;2024-02-23T00:53:41;23.17;;;18.07;;
49946;SDS011;35839;48.662;13.300;2024-02-23T00:56:06;23.33;;;18.73;;
49946;SDS011;35839;48.662;13.300;2024-02-23T00:58:32;23.73;;;17.77;;
49946;SDS011;35839;48.662;13.300;2024-02-23T01:00:59;24.60;;;20.17;;
49946;SDS011;35839;48.662;13.300;2024-02-23T01:03:24;26.93;;;20.60;;
49946;SDS011;35839;48.662;13.300;2024-02-23T01:05:50;23.33;;;19.50;;
49946;SDS011;35839;48.662;13.300;2024-02-23T01:08:15;32.33;;;24.33;;
49946;SDS011;35839;48.662;13.300;2024-02-23T01:10:40;24.47;;;19.93;;
49946;SDS011;35839;48.662;13.300;2024-02-23T01:13:06;25.97;;;18.37;;
49946;SDS011;35839;48.662;13.300;2024-02-23T01:15:31;25.20;;;19.13;;
49946;SDS011;35839;48.662;13.300;2024-02-23T01:17:56;24.33;;;19.67;;
49946;SDS011;35839;48.662;13.300;2024-02-23T01:20:22;24.67;;;18.50;;
49946;SDS011;35839;48.662;13.300;2024-02-23T01:22:47;64.97;;;46.53;;
49946;SDS011;35839;48.662;13.300;2024-02-23T01:25:12;29.53;;;21.73;;
49946;SDS011;35839;48.662;13.300;2024-02-23T01:27:40;24.83;;;17.80;;
49946;SDS011;35839;48.662;13.300;2024-02-23T01:30:06;34.30;;;21.10;;
49946;SDS011;35839;48.662;13.300;2024-02-23T01:32:32;36.23;;;22.20;;
49946;SDS011;35839;48.662;13.300;2024-02-23T01:34:57;77.97;;;43.20;;
49946;SDS011;35839;48.662;13.300;2024-02-23T01:37:23;23.37;;;17.83;;
49946;SDS011;35839;48.662;13.300;2024-02-23T01:39:48;17.20;;;13.27;;
49946;SDS011;35839;48.662;13.300;2024-02-23T01:42:13;15.77;;;12.93;;
49946;SDS011;35839;48.662;13.300;2024-02-23T01:44:39;17.33;;;12.87;;
49946;SDS011;35839;48.662;13.300;2024-02-23T01:47:04;13.60;;;10.30;;
49946;SDS011;35839;48.662;13.300;2024-02-23T01:49:29;16.53;;;11.33;;
49946;SDS011;35839;48.662;13.300;2024-02-23T01:51:57;17.87;;;12.03;;
49946;SDS011;35839;48.662;13.300;2024-02-23T01:54:23;20.47;;;13.77;;
49946;SDS011;35839;48.662;13.300;2024-02-23T01:56:50;15.17;;;12.17;;
49946;SDS011;35839;48.662;13.300;2024-02-23T01:59:16;18.67;;;12.80;;
49946;SDS011;35839;48.662;13.300;2024-02-23T02:01:45;17.20;;;12.70;;
49946;SDS011;35839;48.662;13.300;2024-02-23T02:04:10;18.05;;;12.30;;
49946;SDS011;35839;48.662;13.300;2024-02-23T02:06:36;16.50;;;12.30;;
49946;SDS011;35839;48.662;13.300;2024-02-23T02:09:01;19.37;;;13.60;;
49946;SDS011;35839;48.662;13.300;2024-02-23T02:11:27;16.20;;;11.77;;
49946;SDS011;35839;48.662;13.300;2024-02-23T02:13:53;18.00;;;11.20;;
49946;SDS011;35839;48.662;13.300;2024-02-23T02:16:18;22.73;;;13.07;;
49946;SDS011;35839;48.662;13.300;2024-02-23T02:18:43;15.20;;;10.00;;
49946;SDS011;35839;48.662;13.300;2024-02-23T02:21:10;15.23;;;10.43;;
49946;SDS011;35839;48.662;13.300;2024-02-23T02:23:36;12.57;;;8.00;;
49946;SDS011;35839;48.662;13.300;2024-02-23T02:26:02;8.13;;;5.93;;
49946;SDS011;35839;48.662;13.300;2024-02-23T02:28:28;10.30;;;6.20;;
49946;SDS011;35839;48.662;13.300;2024-02-23T02:30:54;9.77;;;7.17;;
49946;SDS011;35839;48.662;13.300;2024-02-23T02:33:20;5.97;;;4.60;;
49946;SDS011;35839;48.662;13.300;2024-02-23T02:35:46;7.73;;;4.20;;
49946;SDS011;35839;48.662;13.300;2024-02-23T02:38:11;6.77;;;4.87;;
49946;SDS011;35839;48.662;13.300;2024-02-23T02:40:37;5.30;;;3.77;;
49946;SDS011;35839;48.662;13.300;2024-02-23T02:43:03;4.47;;;2.93;;
49946;SDS011;35839;48.662;13.300;2024-02-23T02:45:29;4.83;;;2.47;;
49946;SDS011;35839;48.662;13.300;2024-02-23T02:47:54;4.60;;;2.20;;
49946;SDS011;35839;48.662;13.300;2024-02-23T02:50:21;2.73;;;1.57;;
49946;SDS011;35839;48.662;13.300;2024-02-23T02:52:46;3.97;;;1.97;;
49946;SDS011;35839;48.662;13.300;2024-02-23T02:55:12;51.87;;;46.67;;
49946;SDS011;35839;48.662;13.300;2024-02-23T02:57:37;10.60;;;9.67;;
49946;SDS011;35839;48.662;13.300;2024-02-23T03:00:03;4.80;;;3.40;;
49946;SDS011;35839;48.662;13.300;2024-02-23T03:02:33;1.03;;;0.93;;
49946;SDS011;35839;48.662;13.300;2024-02-23T03:05:00;1.13;;;0.87;;
49946;SDS011;35839;48.662;13.300;2024-02-23T03:07:26;1.83;;;0.90;;
49946;SDS011;35839;48.662;13.300;2024-02-23T03:09:51;2.47;;;0.80;;
49946;SDS011;35839;48.662;13.300;2024-02-23T03:12:17;1.17;;;0.73;;
49946;SDS011;35839;48.662;13.300;2024-02-23T03:14:42;1.03;;;0.43;;
49946;SDS011;35839;48.662;13.300;2024-02-23T03:17:09;1.03;;;0.50;;
49946;SDS011;35839;48.662;13.300;2024-02-23T03:19:35;1.97;;;0.50;;
49946;SDS011;35839;48.662;13.300;2024-02-23T03:22:01;0.93;;;0.20;;
49946;SDS011;35839;48.662;13.300;2024-02-23T03:24:27;3.03;;;0.63;;
49946;SDS011;35839;48.662;13.300;2024-02-23T03:26:52;0.30;;;0.13;;
49946;SDS011;35839;48.662;13.300;2024-02-23T03:29:18;1.10;;;0.50;;
49946;SDS011;35839;48.662;13.300;2024-02-23T03:31:44;0.50;;;0.50;;
49946;SDS011;35839;48.662;13.300;2024-02-23T03:34:09;0.53;;;0.30;;
49946;SDS011;35839;48.662;13.300;2024-02-23T03:36:36;0.80;;;0.37;;
49946;SDS011;35839;48.662;13.300;2024-02-23T03:39:01;0.47;;;0.10;;
49946;SDS011;35839;48.662;13.300;2024-02-23T03:41:27;0.47;;;0.20;;
49946;SDS011;35839;48.662;13.300;2024-02-23T03:43:52;0.30;;;0.17;;
49946;SDS011;35839;48.662;13.300;2024-02-23T03:46:17;0.73;;;0.10;;
49946;SDS011;35839;48.662;13.300;2024-02-23T03:48:45;2.43;;;0.27;;
49946;SDS011;35839;48.662;13.300;2024-02-23T03:51:10;0.13;;;0.07;;
49946;SDS011;35839;48.662;13.300;2024-02-23T03:53:36;1.50;;;0.27;;
49946;SDS011;35839;48.662;13.300;2024-02-23T03:56:01;0.17;;;0.07;;
49946;SDS011;35839;48.662;13.300;2024-02-23T03:58:26;0.10;;;0.00;;
49946;SDS011;35839;48.662;13.300;2024-02-23T04:00:52;0.27;;;0.20;;
49946;SDS011;35839;48.662;13.300;2024-02-23T04:03:17;0.60;;;0.30;;
49946;SDS011;35839;48.662;13.300;2024-02-23T04:05:42;1.37;;;0.20;;
49946;SDS011;35839;48.662;13.300;2024-02-23T04:08:08;0.20;;;0.00;;
49946;SDS011;35839;48.662;13.300;2024-02-23T04:10:33;0.10;;;0.10;;
49946;SDS011;35839;48.662;13.300;2024-02-23T04:12:59;0.40;;;0.10;;
49946;SDS011;35839;48.662;13.300;2024-02-23T04:15:25;0.23;;;0.20;;
49946;SDS011;35839;48.662;13.300;2024-02-23T04:17:50;3.00;;;0.40;;
49946;SDS011;35839;48.662;13.300;2024-02-23T04:20:16;0.10;;;0.10;;
49946;SDS011;35839;48.662;13.300;2024-02-23T04:22:41;0.10;;;0.07;;
49946;SDS011;35839;48.662;13.300;2024-02-23T04:25:06;2.07;;;0.20;;
49946;SDS011;35839;48.662;13.300;2024-02-23T04:27:32;0.37;;;0.10;;
49946;SDS011;35839;48.662;13.300;2024-02-23T04:29:57;1.77;;;0.17;;
49946;SDS011;35839;48.662;13.300;2024-02-23T04:32:23;0.87;;;0.23;;
49946;SDS011;35839;48.662;13.300;2024-02-23T04:34:48;0.10;;;0.10;;
49946;SDS011;35839;48.662;13.300;2024-02-23T04:37:14;0.63;;;0.10;;
49946;SDS011;35839;48.662;13.300;2024-02-23T04:39:39;0.00;;;0.00;;
49946;SDS011;35839;48.662;13.300;2024-02-23T04:42:06;1.13;;;0.10;;
49946;SDS011;35839;48.662;13.300;2024-02-23T04:44:33;0.87;;;0.23;;
49946;SDS011;35839;48.662;13.300;2024-02-23T04:46:59;1.27;;;0.30;;
49946;SDS011;35839;48.662;13.300;2024-02-23T04:49:24;2.83;;;0.17;;
49946;SDS011;35839;48.662;13.300;2024-02-23T04:51:50;1.80;;;0.37;;
49946;SDS011;35839;48.662;13.300;2024-02-23T04:54:15;0.40;;;0.20;;
49946;SDS011;35839;48.662;13.300;2024-02-23T04:56:42;0.40;;;0.10;;
49946;SDS011;35839;48.662;13.300;2024-02-23T04:59:07;1.30;;;0.43;;
49946;SDS011;35839;48.662;13.300;2024-02-23T05:01:36;2.00;;;0.40;;
49946;SDS011;35839;48.662;13.300;2024-02-23T05:06:28;1.57;;;0.40;;
49946;SDS011;35839;48.662;13.300;2024-02-23T05:08:53;0.30;;;0.17;;
49946;SDS011;35839;48.662;13.300;2024-02-23T05:11:19;0.23;;;0.17;;
49946;SDS011;35839;48.662;13.300;2024-02-23T05:13:44;1.53;;;0.20;;
49946;SDS011;35839;48.662;13.300;2024-02-23T05:16:09;0.33;;;0.20;;
49946;SDS011;35839;48.662;13.300;2024-02-23T05:18:35;0.27;;;0.27;;
49946;SDS011;35839;48.662;13.300;2024-02-23T05:21:00;6.77;;;0.80;;
49946;SDS011;35839;48.662;13.300;2024-02-23T05:23:25;0.57;;;0.27;;
49946;SDS011;35839;48.662;13.300;2024-02-23T05:25:51;1.37;;;0.40;;
49946;SDS011;35839;48.662;13.300;2024-02-23T05:28:16;0.40;;;0.30;;
49946;SDS011;35839;48.662;13.300;2024-02-23T05:30:41;0.30;;;0.30;;
49946;SDS011;35839;48.662;13.300;2024-02-23T05:33:07;5.67;;;0.50;;
49946;SDS011;35839;48.662;13.300;2024-02-23T05:35:32;1.30;;;0.50;;
49946;SDS011;35839;48.662;13.300;2024-02-23T05:37:58;0.87;;;0.40;;
49946;SDS011;35839;48.662;13.300;2024-02-23T05:40:23;2.80;;;0.57;;
49946;SDS011;35839;48.662;13.300;2024-02-23T05:42:50;1.27;;;0.67;;
49946;SDS011;35839;48.662;13.300;2024-02-23T05:45:15;1.33;;;0.30;;
49946;SDS011;35839;48.662;13.300;2024-02-23T05:47:40;1.93;;;0.27;;
49946;SDS011;35839;48.662;13.300;2024-02-23T05:50:07;2.50;;;0.40;;
49946;SDS011;35839;48.662;13.300;2024-02-23T05:52:36;7.23;;;5.97;;
49946;SDS011;35839;48.662;13.300;2024-02-23T05:55:02;3.17;;;0.73;;
49946;SDS011;35839;48.662;13.300;2024-02-23T05:57:29;7.40;;;5.87;;
49946;SDS011;35839;48.662;13.300;2024-02-23T05:59:55;1.60;;;1.50;;
49946;SDS011;35839;48.662;13.300;2024-02-23T06:02:20;0.67;;;0.37;;
49946;SDS011;35839;48.662;13.300;2024-02-23T06:04:46;3.93;;;1.63;;
49946;SDS011;35839;48.662;13.300;2024-02-23T06:07:12;0.73;;;0.50;;
49946;SDS011;35839;48.662;13.300;2024-02-23T06:09:38;2.43;;;0.70;;
49946;SDS011;35839;48.662;13.300;2024-02-23T06:12:04;4.37;;;3.77;;
49946;SDS011;35839;48.662;13.300;2024-02-23T06:14:30;2.17;;;0.83;;
49946;SDS011;35839;48.662;13.300;2024-02-23T06:16:56;4.20;;;1.00;;
49946;SDS011;35839;48.662;13.300;2024-02-23T06:19:21;1.17;;;0.60;;
49946;SDS011;35839;48.662;13.300;2024-02-23T06:21:47;1.80;;;0.73;;
49946;SDS011;35839;48.662;13.300;2024-02-23T06:24:14;1.43;;;0.20;;
49946;SDS011;35839;48.662;13.300;2024-02-23T06:26:39;1.70;;;0.40;;
49946;SDS011;35839;48.662;13.300;2024-02-23T06:29:05;0.30;;;0.17;;
49946;SDS011;35839;48.662;13.300;2024-02-23T06:31:30;1.80;;;0.53;;
49946;SDS011;35839;48.662;13.300;2024-02-23T06:33:58;1.60;;;0.50;;
49946;SDS011;35839;48.662;13.300;2024-02-23T06:36:25;1.90;;;0.50;;
49946;SDS011;35839;48.662;13.300;2024-02-23T06:38:50;0.30;;;0.30;;
49946;SDS011;35839;48.662;13.300;2024-02-23T06:41:16;0.50;;;0.20;;
49946;SDS011;35839;48.662;13.300;2024-02-23T06:43:41;0.60;;;0.30;;
49946;SDS011;35839;48.662;13.300;2024-02-23T06:46:07;2.97;;;0.90;;
49946;SDS011;35839;48.662;13.300;2024-02-23T06:48:34;3.17;;;1.70;;
49946;SDS011;35839;48.662;13.300;2024-02-23T06:50:59;3.67;;;2.40;;
49946;SDS011;35839;48.662;13.300;2024-02-23T06:53:25;47.40;;;25.60;;
49946;SDS011;35839;48.662;13.300;2024-02-23T06:55:50;44.53;;;23.73;;
49946;SDS011;35839;48.662;13.300;2024-02-23T06:58:15;19.00;;;11.83;;
49946;SDS011;35839;48.662;13.300;2024-02-23T07:00:41;9.03;;;4.37;;
49946;SDS011;35839;48.662;13.300;2024-02-23T07:03:07;2.60;;;1.93;;
49946;SDS011;35839;48.662;13.300;2024-02-23T07:05:32;7.23;;;4.83;;
49946;SDS011;35839;48.662;13.300;2024-02-23T07:08:00;3.70;;;2.87;;
49946;SDS011;35839;48.662;13.300;2024-02-23T07:10:25;2.17;;;1.00;;
49946;SDS011;35839;48.662;13.300;2024-02-23T07:12:51;8.57;;;1.07;;
49946;SDS011;35839;48.662;13.300;2024-02-23T07:15:18;4.13;;;0.83;;
49946;SDS011;35839;48.662;13.300;2024-02-23T07:17:45;0.70;;;0.20;;
49946;SDS011;35839;48.662;13.300;2024-02-23T07:20:10;7.13;;;3.50;;
49946;SDS011;35839;48.662;13.300;2024-02-23T07:22:36;5.57;;;2.87;;
49946;SDS011;35839;48.662;13.300;2024-02-23T07:25:02;2.30;;;0.70;;
49946;SDS011;35839;48.662;13.300;2024-02-23T07:27:29;1.10;;;0.57;;
49946;SDS011;35839;48.662;13.300;2024-02-23T07:29:54;1.07;;;0.50;;
49946;SDS011;35839;48.662;13.300;2024-02-23T07:32:20;2.60;;;1.37;;
49946;SDS011;35839;48.662;13.300;2024-02-23T07:34:45;7.83;;;3.00;;
49946;SDS011;35839;48.662;13.300;2024-02-23T07:37:11;1.80;;;1.10;;
49946;SDS011;35839;48.662;13.300;2024-02-23T07:39:36;0.77;;;0.57;;
49946;SDS011;35839;48.662;13.300;2024-02-23T07:42:02;3.23;;;1.83;;
49946;SDS011;35839;48.662;13.300;2024-02-23T07:44:28;2.20;;;1.03;;
49946;SDS011;35839;48.662;13.300;2024-02-23T07:46:53;6.83;;;4.83;;
49946;SDS011;35839;48.662;13.300;2024-02-23T07:49:20;2.67;;;1.67;;
49946;SDS011;35839;48.662;13.300;2024-02-23T07:51:47;5.43;;;1.50;;
49946;SDS011;35839;48.662;13.300;2024-02-23T07:54:12;10.83;;;7.37;;
49946;SDS011;35839;48.662;13.300;2024-02-23T07:56:38;42.87;;;21.20;;
49946;SDS011;35839;48.662;13.300;2024-02-23T07:59:03;7.93;;;6.83;;
49946;SDS011;35839;48.662;13.300;2024-02-23T08:01:29;2.97;;;1.60;;
49946;SDS011;35839;48.662;13.300;2024-02-23T08:03:54;1.47;;;0.50;;
49946;SDS011;35839;48.662;13.300;2024-02-23T08:06:20;2.77;;;0.83;;
49946;SDS011;35839;48.662;13.300;2024-02-23T08:08:46;4.23;;;1.10;;
49946;SDS011;35839;48.662;13.300;2024-02-23T08:11:11;1.97;;;0.40;;
49946;SDS011;35839;48.662;13.300;2024-02-23T08:13:37;1.37;;;0.43;;
49946;SDS011;35839;48.662;13.300;2024-02-23T08:16:02;1.87;;;1.03;;
49946;SDS011;35839;48.662;13.300;2024-02-23T08:18:28;2.20;;;0.70;;
49946;SDS011;35839;48.662;13.300;2024-02-23T08:20:54;3.20;;;0.53;;
49946;SDS011;35839;48.662;13.300;2024-02-23T08:23:19;2.10;;;0.40;;
49946;SDS011;35839;48.662;13.300;2024-02-23T08:25:45;0.77;;;0.40;;
49946;SDS011;35839;48.662;13.300;2024-02-23T08:28:11;1.10;;;0.70;;
49946;SDS011;35839;48.662;13.300;2024-02-23T08:30:37;1.90;;;0.97;;
49946;SDS011;35839;48.662;13.300;2024-02-23T08:33:02;1.70;;;0.60;;
49946;SDS011;35839;48.662;13.300;2024-02-23T08:35:28;0.93;;;0.40;;
49946;SDS011;35839;48.662;13.300;2024-02-23T08:37:53;1.43;;;1.00;;
49946;SDS011;35839;48.662;13.300;2024-02-23T08:40:19;1.90;;;0.50;;
49946;SDS011;35839;48.662;13.300;2024-02-23T08:42:44;0.40;;;0.20;;
49946;SDS011;35839;48.662;13.300;2024-02-23T08:45:09;3.43;;;0.50;;
49946;SDS011;35839;48.662;13.300;2024-02-23T08:47:37;0.70;;;0.30;;
49946;SDS011;35839;48.662;13.300;2024-02-23T08:50:03;1.40;;;0.30;;
49946;SDS011;35839;48.662;13.300;2024-02-23T08:52:29;0.20;;;0.20;;
49946;SDS011;35839;48.662;13.300;2024-02-23T08:54:55;1.20;;;0.30;;
49946;SDS011;35839;48.662;13.300;2024-02-23T08:57:20;0.43;;;0.30;;
49946;SDS011;35839;48.662;13.300;2024-02-23T08:59:47;0.93;;;0.53;;
49946;SDS011;35839;48.662;13.300;2024-02-23T09:02:13;0.77;;;0.53;;
49946;SDS011;35839;48.662;13.300;2024-02-23T09:04:39;2.60;;;0.47;;
49946;SDS011;35839;48.662;13.300;2024-02-23T09:07:04;1.27;;;0.60;;
49946;SDS011;35839;48.662;13.300;2024-02-23T09:09:30;0.80;;;0.33;;
49946;SDS011;35839;48.662;13.300;2024-02-23T09:11:56;0.73;;;0.60;;
49946;SDS011;35839;48.662;13.300;2024-02-23T09:14:21;2.57;;;0.53;;
49946;SDS011;35839;48.662;13.300;2024-02-23T09:16:47;1.53;;;0.60;;
49946;SDS011;35839;48.662;13.300;2024-02-23T09:19:15;1.37;;;0.70;;
49946;SDS011;35839;48.662;13.300;2024-02-23T09:21:41;2.00;;;0.57;;
49946;SDS011;35839;48.662;13.300;2024-02-23T09:24:06;4.00;;;0.50;;
49946;SDS011;35839;48.662;13.300;2024-02-23T09:26:32;0.93;;;0.50;;
49946;SDS011;35839;48.662;13.300;2024-02-23T09:28:57;2.20;;;0.30;;
49946;SDS011;35839;48.662;13.300;2024-02-23T09:31:23;2.07;;;0.60;;
49946;SDS011;35839;48.662;13.300;2024-02-23T09:33:48;2.33;;;0.70;;
49946;SDS011;35839;48.662;13.300;2024-02-23T09:36:16;0.90;;;0.40;;
49946;SDS011;35839;48.662;13.300;2024-02-23T09:38:42;0.47;;;0.37;;
49946;SDS011;35839;48.662;13.300;2024-02-23T09:41:11;0.87;;;0.67;;
49946;SDS011;35839;48.662;13.300;2024-02-23T09:43:43;2.33;;;0.50;;
49946;SDS011;35839;48.662;13.300;2024-02-23T09:46:09;1.70;;;0.57;;
49946;SDS011;35839;48.662;13.300;2024-02-23T09:48:35;1.80;;;0.50;;
49946;SDS011;35839;48.662;13.300;2024-02-23T09:51:01;2.10;;;0.57;;
49946;SDS011;35839;48.662;13.300;2024-02-23T09:53:29;1.50;;;0.40;;
49946;SDS011;35839;48.662;13.300;2024-02-23T09:55:55;0.73;;;0.30;;
49946;SDS011;35839;48.662;13.300;2024-02-23T09:58:25;2.13;;;0.47;;
49946;SDS011;35839;48.662;13.300;2024-02-23T10:00:54;1.13;;;0.63;;
49946;SDS011;35839;48.662;13.300;2024-02-23T10:03:23;0.90;;;0.47;;
49946;SDS011;35839;48.662;13.300;2024-02-23T10:05:53;1.63;;;0.60;;
49946;SDS011;35839;48.662;13.300;2024-02-23T10:08:19;2.40;;;0.80;;
49946;SDS011;35839;48.662;13.300;2024-02-23T10:10:48;2.63;;;0.50;;
49946;SDS011;35839;48.662;13.300;2024-02-23T10:13:20;0.87;;;0.53;;
49946;SDS011;35839;48.662;13.300;2024-02-23T10:18:14;0.43;;;0.28;;
49946;SDS011;35839;48.662;13.300;2024-02-23T10:20:40;3.40;;;0.67;;
49946;SDS011;35839;48.662;13.300;2024-02-23T10:23:05;0.50;;;0.30;;
49946;SDS011;35839;48.662;13.300;2024-02-23T10:25:36;1.23;;;0.60;;
49946;SDS011;35839;48.662;13.300;2024-02-23T10:28:05;0.37;;;0.37;;
49946;SDS011;35839;48.662;13.300;2024-02-23T10:30:31;1.25;;;0.63;;
49946;SDS011;35839;48.662;13.300;2024-02-23T10:32:57;2.27;;;0.50;;
49946;SDS011;35839;48.662;13.300;2024-02-23T10:35:23;1.43;;;0.50;;
49946;SDS011;35839;48.662;13.300;2024-02-23T10:37:50;2.20;;;0.73;;
49946;SDS011;35839;48.662;13.300;2024-02-23T10:40:17;0.20;;;0.17;;
49946;SDS011;35839;48.662;13.300;2024-02-23T10:42:45;1.63;;;0.63;;
49946;SDS011;35839;48.662;13.300;2024-02-23T10:45:14;1.20;;;0.40;;
49946;SDS011;35839;48.662;13.300;2024-02-23T10:47:41;0.57;;;0.50;;
49946;SDS011;35839;48.662;13.300;2024-02-23T10:50:07;2.67;;;0.63;;
49946;SDS011;35839;48.662;13.300;2024-02-23T10:52:33;0.40;;;0.30;;
49946;SDS011;35839;48.662;13.300;2024-02-23T10:55:02;2.20;;;0.60;;
49946;SDS011;35839;48.662;13.300;2024-02-23T10:57:31;2.70;;;0.63;;
49946;SDS011;35839;48.662;13.300;2024-02-23T10:59:57;0.70;;;0.13;;
49946;SDS011;35839;48.662;13.300;2024-02-23T11:02:23;0.77;;;0.43;;
49946;SDS011;35839;48.662;13.300;2024-02-23T11:04:50;0.60;;;0.20;;
49946;SDS011;35839;48.662;13.300;2024-02-23T11:07:20;1.67;;;0.37;;
49946;SDS011;35839;48.662;13.300;2024-02-23T11:09:51;1.10;;;0.52;;
49946;SDS011;35839;48.662;13.300;2024-02-23T11:12:30;1.83;;;0.30;;
49946;SDS011;35839;48.662;13.300;2024-02-23T11:14:56;1.70;;;0.50;;
49946;SDS011;35839;48.662;13.300;2024-02-23T11:17:26;1.90;;;0.60;;
49946;SDS011;35839;48.662;13.300;2024-02-23T11:19:54;1.23;;;0.40;;
49946;SDS011;35839;48.662;13.300;2024-02-23T11:22:30;2.83;;;0.57;;
49946;SDS011;35839;48.662;13.300;2024-02-23T11:25:03;0.77;;;0.47;;
49946;SDS011;35839;48.662;13.300;2024-02-23T11:27:31;3.70;;;1.07;;
49946;SDS011;35839;48.662;13.300;2024-02-23T11:30:04;1.30;;;0.63;;
49946;SDS011;35839;48.662;13.300;2024-02-23T11:32:38;4.93;;;0.80;;
49946;SDS011;35839;48.662;13.300;2024-02-23T11:35:07;1.60;;;0.87;;
49946;SDS011;35839;48.662;13.300;2024-02-23T11:37:32;1.40;;;0.63;;
49946;SDS011;35839;48.662;13.300;2024-02-23T11:40:08;1.97;;;0.30;;
49946;SDS011;35839;48.662;13.300;2024-02-23T11:42:35;0.43;;;0.20;;
49946;SDS011;35839;48.662;13.300;2024-02-23T11:45:00;2.27;;;0.40;;
49946;SDS011;35839;48.662;13.300;2024-02-23T11:47:26;2.90;;;0.37;;
49946;SDS011;35839;48.662;13.300;2024-02-23T11:49:51;3.63;;;0.60;;
49946;SDS011;35839;48.662;13.300;2024-02-23T11:52:16;1.27;;;0.60;;
49946;SDS011;35839;48.662;13.300;2024-02-23T11:54:42;2.07;;;0.50;;
49946;SDS011;35839;48.662;13.300;2024-02-23T11:57:07;4.47;;;0.80;;
49946;SDS011;35839;48.662;13.300;2024-02-23T11:59:33;4.17;;;0.97;;
49946;SDS011;35839;48.662;13.300;2024-02-23T12:01:59;2.17;;;0.50;;
49946;SDS011;35839;48.662;13.300;2024-02-23T12:04:26;5.93;;;0.67;;
49946;SDS011;35839;48.662;13.300;2024-02-23T12:06:54;1.08;;;0.43;;
49946;SDS011;35839;48.662;13.300;2024-02-23T12:09:19;1.80;;;0.73;;
49946;SDS011;35839;48.662;13.300;2024-02-23T12:11:45;1.80;;;0.43;;
49946;SDS011;35839;48.662;13.300;2024-02-23T12:14:10;2.87;;;0.80;;
49946;SDS011;35839;48.662;13.300;2024-02-23T12:16:36;1.23;;;0.40;;
49946;SDS011;35839;48.662;13.300;2024-02-23T12:19:01;2.90;;;0.57;;
49946;SDS011;35839;48.662;13.300;2024-02-23T12:21:28;2.37;;;0.67;;
49946;SDS011;35839;48.662;13.300;2024-02-23T12:23:53;1.13;;;0.30;;
49946;SDS011;35839;48.662;13.300;2024-02-23T12:26:19;2.73;;;0.80;;
49946;SDS011;35839;48.662;13.300;2024-02-23T12:28:45;3.80;;;0.43;;
49946;SDS011;35839;48.662;13.300;2024-02-23T12:31:11;0.93;;;0.50;;
49946;SDS011;35839;48.662;13.300;2024-02-23T12:33:37;3.07;;;0.77;;
49946;SDS011;35839;48.662;13.300;2024-02-23T12:36:07;2.27;;;0.50;;
49946;SDS011;35839;48.662;13.300;2024-02-23T12:38:33;2.20;;;0.60;;
49946;SDS011;35839;48.662;13.300;2024-02-23T12:40:59;1.70;;;0.30;;
49946;SDS011;35839;48.662;13.300;2024-02-23T12:43:25;3.27;;;1.27;;
49946;SDS011;35839;48.662;13.300;2024-02-23T12:45:53;1.17;;;0.40;;
49946;SDS011;35839;48.662;13.300;2024-02-23T12:48:19;4.95;;;0.95;;
49946;SDS011;35839;48.662;13.300;2024-02-23T12:50:46;0.97;;;0.27;;
49946;SDS011;35839;48.662;13.300;2024-02-23T12:56:01;0.75;;;0.30;;
49946;SDS011;35839;48.662;13.300;2024-02-23T12:58:27;3.00;;;0.63;;
49946;SDS011;35839;48.662;13.300;2024-02-23T13:00:55;1.10;;;0.40;;
49946;SDS011;35839;48.662;13.300;2024-02-23T13:03:20;1.13;;;0.77;;
49946;SDS011;35839;48.662;13.300;2024-02-23T13:05:46;0.67;;;0.37;;
49946;SDS011;35839;48.662;13.300;2024-02-23T13:08:12;1.33;;;0.30;;
49946;SDS011;35839;48.662;13.300;2024-02-23T13:10:37;1.47;;;0.60;;
49946;SDS011;35839;48.662;13.300;2024-02-23T13:13:03;1.27;;;0.43;;
49946;SDS011;35839;48.662;13.300;2024-02-23T13:15:28;2.73;;;0.60;;
49946;SDS011;35839;48.662;13.300;2024-02-23T13:17:53;2.53;;;0.40;;
49946;SDS011;35839;48.662;13.300;2024-02-23T13:20:19;0.23;;;0.23;;
49946;SDS011;35839;48.662;13.300;2024-02-23T13:22:44;1.07;;;0.30;;
49946;SDS011;35839;48.662;13.300;2024-02-23T13:25:09;1.20;;;0.30;;
49946;SDS011;35839;48.662;13.300;2024-02-23T13:27:35;0.97;;;0.50;;
49946;SDS011;35839;48.662;13.300;2024-02-23T13:30:01;1.47;;;0.50;;
49946;SDS011;35839;48.662;13.300;2024-02-23T13:32:27;0.57;;;0.30;;
49946;SDS011;35839;48.662;13.300;2024-02-23T13:34:53;0.97;;;0.50;;
49946;SDS011;35839;48.662;13.300;2024-02-23T13:37:18;0.63;;;0.33;;
49946;SDS011;35839;48.662;13.300;2024-02-23T13:39:43;1.60;;;0.50;;
49946;SDS011;35839;48.662;13.300;2024-02-23T13:42:09;1.07;;;0.47;;
49946;SDS011;35839;48.662;13.300;2024-02-23T13:44:35;1.47;;;0.50;;
49946;SDS011;35839;48.662;13.300;2024-02-23T13:47:01;1.37;;;0.63;;
49946;SDS011;35839;48.662;13.300;2024-02-23T13:49:26;3.90;;;0.40;;
49946;SDS011;35839;48.662;13.300;2024-02-23T13:51:51;1.13;;;0.40;;
49946;SDS011;35839;48.662;13.300;2024-02-23T13:54:17;1.97;;;0.53;;
49946;SDS011;35839;48.662;13.300;2024-02-23T13:56:42;0.97;;;0.67;;
49946;SDS011;35839;48.662;13.300;2024-02-23T13:59:08;0.50;;;0.27;;
49946;SDS011;35839;48.662;13.300;2024-02-23T14:01:33;1.03;;;0.50;;
49946;SDS011;35839;48.662;13.300;2024-02-23T14:03:58;0.97;;;0.47;;
49946;SDS011;35839;48.662;13.300;2024-02-23T14:06:24;2.37;;;0.57;;
49946;SDS011;35839;48.662;13.300;2024-02-23T14:08:49;0.83;;;0.37;;
49946;SDS011;35839;48.662;13.300;2024-02-23T14:11:15;1.93;;;0.87;;
49946;SDS011;35839;48.662;13.300;2024-02-23T14:13:40;2.30;;;0.40;;
49946;SDS011;35839;48.662;13.300;2024-02-23T14:16:05;1.63;;;0.40;;
49946;SDS011;35839;48.662;13.300;2024-02-23T14:18:31;1.30;;;0.33;;
49946;SDS011;35839;48.662;13.300;2024-02-23T14:21:02;1.47;;;0.30;;
49946;SDS011;35839;48.662;13.300;2024-02-23T14:23:28;0.97;;;0.37;;
49946;SDS011;35839;48.662;13.300;2024-02-23T14:25:53;0.30;;;0.10;;
49946;SDS011;35839;48.662;13.300;2024-02-23T14:28:19;0.87;;;0.33;;